sensor_id;sensor_type;location;lat;lon;timestamp;temperature;humidity
6462;DHT22;3264;42.862;25.098;2022-12-01T00:01:46;2.00;99.90
6462;DHT22;3264;42.862;25.098;2022-12-01T00:04:13;2.00;99.90
6462;DHT22;3264;42.862;25.098;2022-12-01T00:06:42;2.00;99.90
6462;DHT22;3264;42.862;25.098;2022-12-01T00:09:12;2.00;99.90
6462;DHT22;3264;42.862;25.098;2022-12-01T00:11:58;2.00;99.90
6462;DHT22;3264;42.862;25.098;2022-12-01T00:14:25;2.00;99.90
6462;DHT22;3264;42.862;25.098;2022-12-01T00:16:53;2.00;99.90
6462;DHT22;3264;42.862;25.098;2022-12-01T00:19:23;2.00;99.90
6462;DHT22;3264;42.862;25.098;2022-12-01T00:21:52;2.00;99.90
6462;DHT22;3264;42.862;25.098;2022-12-01T00:24:22;2.10;99.90
6462;DHT22;3264;42.862;25.098;2022-12-01T00:26:51;2.10;99.90
6462;DHT22;3264;42.862;25.098;2022-12-01T00:29:19;2.10;99.90
6462;DHT22;3264;42.862;25.098;2022-12-01T00:31:47;2.10;99.90
6462;DHT22;3264;42.862;25.098;2022-12-01T00:34:21;2.10;99.90
6462;DHT22;3264;42.862;25.098;2022-12-01T00:36:50;2.10;99.90
6462;DHT22;3264;42.862;25.098;2022-12-01T00:39:18;2.00;99.90
6462;DHT22;3264;42.862;25.098;2022-12-01T00:41:47;2.00;99.90
6462;DHT22;3264;42.862;25.098;2022-12-01T00:44:15;2.00;99.90
6462;DHT22;3264;42.862;25.098;2022-12-01T00:46:44;2.00;99.90
6462;DHT22;3264;42.862;25.098;2022-12-01T00:49:13;2.10;99.90
6462;DHT22;3264;42.862;25.098;2022-12-01T00:51:40;2.10;99.90
6462;DHT22;3264;42.862;25.098;2022-12-01T00:54:09;2.10;99.90
6462;DHT22;3264;42.862;25.098;2022-12-01T00:56:37;2.10;99.90
6462;DHT22;3264;42.862;25.098;2022-12-01T00:59:06;2.10;99.90
6462;DHT22;3264;42.862;25.098;2022-12-01T01:01:34;2.00;99.90
6462;DHT22;3264;42.862;25.098;2022-12-01T01:04:02;2.00;99.90
6462;DHT22;3264;42.862;25.098;2022-12-01T01:06:31;2.00;99.90
6462;DHT22;3264;42.862;25.098;2022-12-01T01:08:59;2.00;99.90
6462;DHT22;3264;42.862;25.098;2022-12-01T01:11:42;2.00;99.90
6462;DHT22;3264;42.862;25.098;2022-12-01T01:14:15;1.90;99.90
6462;DHT22;3264;42.862;25.098;2022-12-01T01:16:44;1.90;99.90
6462;DHT22;3264;42.862;25.098;2022-12-01T01:19:25;1.90;99.90
6462;DHT22;3264;42.862;25.098;2022-12-01T01:21:54;1.80;99.90
6462;DHT22;3264;42.862;25.098;2022-12-01T01:24:22;1.80;99.90
6462;DHT22;3264;42.862;25.098;2022-12-01T01:26:50;1.80;99.90
6462;DHT22;3264;42.862;25.098;2022-12-01T01:29:22;1.70;99.90
6462;DHT22;3264;42.862;25.098;2022-12-01T01:31:51;1.80;99.90
6462;DHT22;3264;42.862;25.098;2022-12-01T01:34:19;1.80;99.90
6462;DHT22;3264;42.862;25.098;2022-12-01T01:36:47;1.80;99.90
6462;DHT22;3264;42.862;25.098;2022-12-01T01:39:16;1.80;99.90
6462;DHT22;3264;42.862;25.098;2022-12-01T01:41:45;1.80;99.90
6462;DHT22;3264;42.862;25.098;2022-12-01T01:44:49;1.70;99.90
6462;DHT22;3264;42.862;25.098;2022-12-01T01:47:20;1.70;99.90
6462;DHT22;3264;42.862;25.098;2022-12-01T01:49:49;1.80;99.90
6462;DHT22;3264;42.862;25.098;2022-12-01T01:52:18;1.80;99.90
6462;DHT22;3264;42.862;25.098;2022-12-01T01:54:49;1.80;99.90
6462;DHT22;3264;42.862;25.098;2022-12-01T01:57:22;1.80;99.90
6462;DHT22;3264;42.862;25.098;2022-12-01T02:00:00;1.80;99.90
6462;DHT22;3264;42.862;25.098;2022-12-01T02:02:28;1.80;99.90
6462;DHT22;3264;42.862;25.098;2022-12-01T02:05:00;1.80;99.90
6462;DHT22;3264;42.862;25.098;2022-12-01T02:07:37;1.80;99.90
6462;DHT22;3264;42.862;25.098;2022-12-01T02:10:08;1.90;99.90
6462;DHT22;3264;42.862;25.098;2022-12-01T02:12:48;1.80;99.90
6462;DHT22;3264;42.862;25.098;2022-12-01T02:15:32;1.80;99.90
6462;DHT22;3264;42.862;25.098;2022-12-01T02:18:14;1.80;99.90
6462;DHT22;3264;42.862;25.098;2022-12-01T02:27:06;1.80;99.90
6462;DHT22;3264;42.862;25.098;2022-12-01T02:30:05;1.80;99.90
6462;DHT22;3264;42.862;25.098;2022-12-01T02:32:45;1.80;99.90
6462;DHT22;3264;42.862;25.098;2022-12-01T02:35:21;1.80;99.90
6462;DHT22;3264;42.862;25.098;2022-12-01T02:37:59;1.80;99.90
6462;DHT22;3264;42.862;25.098;2022-12-01T02:40:32;1.80;99.90
6462;DHT22;3264;42.862;25.098;2022-12-01T02:43:11;1.90;99.90
6462;DHT22;3264;42.862;25.098;2022-12-01T02:45:44;1.90;99.90
6462;DHT22;3264;42.862;25.098;2022-12-01T02:48:22;1.90;99.90
6462;DHT22;3264;42.862;25.098;2022-12-01T02:50:53;1.80;99.90
6462;DHT22;3264;42.862;25.098;2022-12-01T02:53:23;1.80;99.90
6462;DHT22;3264;42.862;25.098;2022-12-01T02:55:53;1.90;99.90
6462;DHT22;3264;42.862;25.098;2022-12-01T02:58:21;1.80;99.90
6462;DHT22;3264;42.862;25.098;2022-12-01T03:01:00;1.80;99.90
6462;DHT22;3264;42.862;25.098;2022-12-01T03:03:45;1.80;99.90
6462;DHT22;3264;42.862;25.098;2022-12-01T03:06:19;1.80;99.90
6462;DHT22;3264;42.862;25.098;2022-12-01T03:08:54;1.80;99.90
6462;DHT22;3264;42.862;25.098;2022-12-01T03:11:31;1.80;99.90
6462;DHT22;3264;42.862;25.098;2022-12-01T03:14:11;1.80;99.90
6462;DHT22;3264;42.862;25.098;2022-12-01T03:16:49;1.90;99.90
6462;DHT22;3264;42.862;25.098;2022-12-01T03:19:28;1.90;99.90
6462;DHT22;3264;42.862;25.098;2022-12-01T03:22:03;1.90;99.90
6462;DHT22;3264;42.862;25.098;2022-12-01T03:24:35;1.90;99.90
6462;DHT22;3264;42.862;25.098;2022-12-01T03:27:05;1.90;99.90
6462;DHT22;3264;42.862;25.098;2022-12-01T03:29:37;1.90;99.90
6462;DHT22;3264;42.862;25.098;2022-12-01T03:32:10;1.90;99.90
6462;DHT22;3264;42.862;25.098;2022-12-01T03:34:44;1.90;99.90
6462;DHT22;3264;42.862;25.098;2022-12-01T03:37:16;1.80;99.90
6462;DHT22;3264;42.862;25.098;2022-12-01T03:39:47;1.90;99.90
6462;DHT22;3264;42.862;25.098;2022-12-01T03:42:20;1.90;99.90
6462;DHT22;3264;42.862;25.098;2022-12-01T03:44:52;1.90;99.90
6462;DHT22;3264;42.862;25.098;2022-12-01T03:47:24;2.00;99.90
6462;DHT22;3264;42.862;25.098;2022-12-01T03:49:57;2.00;99.90
6462;DHT22;3264;42.862;25.098;2022-12-01T03:52:37;1.90;99.90
6462;DHT22;3264;42.862;25.098;2022-12-01T03:55:12;1.90;99.90
6462;DHT22;3264;42.862;25.098;2022-12-01T03:57:45;1.90;99.90
6462;DHT22;3264;42.862;25.098;2022-12-01T04:00:15;2.00;99.90
6462;DHT22;3264;42.862;25.098;2022-12-01T04:02:43;1.90;99.90
6462;DHT22;3264;42.862;25.098;2022-12-01T04:05:14;2.00;99.90
6462;DHT22;3264;42.862;25.098;2022-12-01T04:07:41;2.00;99.90
6462;DHT22;3264;42.862;25.098;2022-12-01T04:10:10;2.00;99.90
6462;DHT22;3264;42.862;25.098;2022-12-01T04:12:39;2.00;99.90
6462;DHT22;3264;42.862;25.098;2022-12-01T04:15:07;1.90;99.90
6462;DHT22;3264;42.862;25.098;2022-12-01T04:17:36;1.90;99.90
6462;DHT22;3264;42.862;25.098;2022-12-01T04:20:05;1.90;99.90
6462;DHT22;3264;42.862;25.098;2022-12-01T04:22:35;1.90;99.90
6462;DHT22;3264;42.862;25.098;2022-12-01T04:25:05;1.90;99.90
6462;DHT22;3264;42.862;25.098;2022-12-01T04:27:33;1.90;99.90
6462;DHT22;3264;42.862;25.098;2022-12-01T04:30:04;2.00;99.90
6462;DHT22;3264;42.862;25.098;2022-12-01T04:32:37;1.90;99.90
6462;DHT22;3264;42.862;25.098;2022-12-01T04:35:06;1.90;99.90
6462;DHT22;3264;42.862;25.098;2022-12-01T04:37:35;1.90;99.90
6462;DHT22;3264;42.862;25.098;2022-12-01T04:40:04;1.80;99.90
6462;DHT22;3264;42.862;25.098;2022-12-01T04:42:32;1.80;99.90
6462;DHT22;3264;42.862;25.098;2022-12-01T04:45:00;1.90;99.90
6462;DHT22;3264;42.862;25.098;2022-12-01T04:47:28;1.80;99.90
6462;DHT22;3264;42.862;25.098;2022-12-01T04:49:56;1.90;99.90
6462;DHT22;3264;42.862;25.098;2022-12-01T04:52:24;1.90;99.90
6462;DHT22;3264;42.862;25.098;2022-12-01T04:54:54;1.90;99.90
6462;DHT22;3264;42.862;25.098;2022-12-01T04:57:23;1.90;99.90
6462;DHT22;3264;42.862;25.098;2022-12-01T04:59:52;1.90;99.90
6462;DHT22;3264;42.862;25.098;2022-12-01T05:02:20;1.80;99.90
6462;DHT22;3264;42.862;25.098;2022-12-01T05:04:49;1.70;99.90
6462;DHT22;3264;42.862;25.098;2022-12-01T05:07:17;1.80;99.90
6462;DHT22;3264;42.862;25.098;2022-12-01T05:09:45;1.60;99.90
6462;DHT22;3264;42.862;25.098;2022-12-01T05:12:15;1.60;99.90
6462;DHT22;3264;42.862;25.098;2022-12-01T05:14:45;1.60;99.90
6462;DHT22;3264;42.862;25.098;2022-12-01T05:17:13;1.70;99.90
6462;DHT22;3264;42.862;25.098;2022-12-01T05:19:42;1.60;99.90
6462;DHT22;3264;42.862;25.098;2022-12-01T05:22:27;1.70;99.90
6462;DHT22;3264;42.862;25.098;2022-12-01T05:24:56;1.60;99.90
6462;DHT22;3264;42.862;25.098;2022-12-01T05:27:26;1.70;99.90
6462;DHT22;3264;42.862;25.098;2022-12-01T05:29:54;1.70;99.90
6462;DHT22;3264;42.862;25.098;2022-12-01T05:32:23;1.70;99.90
6462;DHT22;3264;42.862;25.098;2022-12-01T05:34:51;1.80;99.90
6462;DHT22;3264;42.862;25.098;2022-12-01T05:37:19;1.80;99.90
6462;DHT22;3264;42.862;25.098;2022-12-01T05:39:48;1.70;99.90
6462;DHT22;3264;42.862;25.098;2022-12-01T05:42:15;1.80;99.90
6462;DHT22;3264;42.862;25.098;2022-12-01T05:44:45;1.70;99.90
6462;DHT22;3264;42.862;25.098;2022-12-01T05:47:14;1.70;99.90
6462;DHT22;3264;42.862;25.098;2022-12-01T05:49:42;1.70;99.90
6462;DHT22;3264;42.862;25.098;2022-12-01T05:52:10;1.80;99.90
6462;DHT22;3264;42.862;25.098;2022-12-01T05:54:38;1.80;99.90
6462;DHT22;3264;42.862;25.098;2022-12-01T05:57:06;1.80;99.90
6462;DHT22;3264;42.862;25.098;2022-12-01T05:59:34;1.70;99.90
6462;DHT22;3264;42.862;25.098;2022-12-01T06:02:03;1.60;99.90
6462;DHT22;3264;42.862;25.098;2022-12-01T06:04:31;1.70;99.90
6462;DHT22;3264;42.862;25.098;2022-12-01T06:06:59;1.70;99.90
6462;DHT22;3264;42.862;25.098;2022-12-01T06:09:27;1.70;99.90
6462;DHT22;3264;42.862;25.098;2022-12-01T06:11:55;1.70;99.90
6462;DHT22;3264;42.862;25.098;2022-12-01T06:14:23;1.70;99.90
6462;DHT22;3264;42.862;25.098;2022-12-01T06:16:52;1.70;99.90
6462;DHT22;3264;42.862;25.098;2022-12-01T06:19:22;1.60;99.90
6462;DHT22;3264;42.862;25.098;2022-12-01T06:21:51;1.60;99.90
6462;DHT22;3264;42.862;25.098;2022-12-01T06:24:20;1.50;99.90
6462;DHT22;3264;42.862;25.098;2022-12-01T06:26:48;1.60;99.90
6462;DHT22;3264;42.862;25.098;2022-12-01T06:29:15;1.60;99.90
6462;DHT22;3264;42.862;25.098;2022-12-01T06:31:44;1.60;99.90
6462;DHT22;3264;42.862;25.098;2022-12-01T06:34:13;1.60;99.90
6462;DHT22;3264;42.862;25.098;2022-12-01T06:36:43;1.70;99.90
6462;DHT22;3264;42.862;25.098;2022-12-01T06:39:14;1.70;99.90
6462;DHT22;3264;42.862;25.098;2022-12-01T06:41:42;1.60;99.90
6462;DHT22;3264;42.862;25.098;2022-12-01T06:44:11;1.60;99.90
6462;DHT22;3264;42.862;25.098;2022-12-01T06:46:40;1.60;99.90
6462;DHT22;3264;42.862;25.098;2022-12-01T06:49:10;1.70;99.90
6462;DHT22;3264;42.862;25.098;2022-12-01T06:51:39;1.70;99.90
6462;DHT22;3264;42.862;25.098;2022-12-01T06:54:27;1.80;99.90
6462;DHT22;3264;42.862;25.098;2022-12-01T06:56:55;1.80;99.90
6462;DHT22;3264;42.862;25.098;2022-12-01T06:59:24;1.90;99.90
6462;DHT22;3264;42.862;25.098;2022-12-01T07:01:53;1.90;99.90
6462;DHT22;3264;42.862;25.098;2022-12-01T07:04:22;1.90;99.90
6462;DHT22;3264;42.862;25.098;2022-12-01T07:06:51;1.90;99.90
6462;DHT22;3264;42.862;25.098;2022-12-01T07:09:19;2.00;99.90
6462;DHT22;3264;42.862;25.098;2022-12-01T07:11:49;2.00;99.90
6462;DHT22;3264;42.862;25.098;2022-12-01T07:14:21;1.90;99.90
6462;DHT22;3264;42.862;25.098;2022-12-01T07:16:50;2.00;99.90
6462;DHT22;3264;42.862;25.098;2022-12-01T07:19:18;2.00;99.90
6462;DHT22;3264;42.862;25.098;2022-12-01T07:21:47;1.90;99.90
6462;DHT22;3264;42.862;25.098;2022-12-01T07:24:16;1.90;99.90
6462;DHT22;3264;42.862;25.098;2022-12-01T07:26:44;1.90;99.90
6462;DHT22;3264;42.862;25.098;2022-12-01T07:29:15;2.00;99.90
6462;DHT22;3264;42.862;25.098;2022-12-01T07:31:43;2.00;99.90
6462;DHT22;3264;42.862;25.098;2022-12-01T07:34:12;2.00;99.90
6462;DHT22;3264;42.862;25.098;2022-12-01T07:36:41;2.10;99.90
6462;DHT22;3264;42.862;25.098;2022-12-01T07:39:09;2.00;99.90
6462;DHT22;3264;42.862;25.098;2022-12-01T07:41:37;2.10;99.90
6462;DHT22;3264;42.862;25.098;2022-12-01T07:44:08;2.10;99.90
6462;DHT22;3264;42.862;25.098;2022-12-01T07:46:38;2.10;99.90
6462;DHT22;3264;42.862;25.098;2022-12-01T07:49:07;2.00;99.90
6462;DHT22;3264;42.862;25.098;2022-12-01T07:51:36;2.10;99.90
6462;DHT22;3264;42.862;25.098;2022-12-01T07:54:06;2.10;99.90
6462;DHT22;3264;42.862;25.098;2022-12-01T07:56:34;2.10;99.90
6462;DHT22;3264;42.862;25.098;2022-12-01T07:59:03;2.20;99.90
6462;DHT22;3264;42.862;25.098;2022-12-01T08:01:32;2.20;99.90
6462;DHT22;3264;42.862;25.098;2022-12-01T08:04:01;2.00;99.90
6462;DHT22;3264;42.862;25.098;2022-12-01T08:06:30;2.10;99.90
6462;DHT22;3264;42.862;25.098;2022-12-01T08:08:57;2.20;99.90
6462;DHT22;3264;42.862;25.098;2022-12-01T08:11:26;2.20;99.90
6462;DHT22;3264;42.862;25.098;2022-12-01T08:13:56;2.20;99.90
6462;DHT22;3264;42.862;25.098;2022-12-01T08:16:24;2.10;99.90
6462;DHT22;3264;42.862;25.098;2022-12-01T08:18:53;2.10;99.90
6462;DHT22;3264;42.862;25.098;2022-12-01T08:21:23;2.20;99.90
6462;DHT22;3264;42.862;25.098;2022-12-01T08:23:55;2.20;99.90
6462;DHT22;3264;42.862;25.098;2022-12-01T08:26:24;2.20;99.90
6462;DHT22;3264;42.862;25.098;2022-12-01T08:28:53;2.20;99.90
6462;DHT22;3264;42.862;25.098;2022-12-01T08:31:23;2.10;99.90
6462;DHT22;3264;42.862;25.098;2022-12-01T08:33:51;2.10;99.90
6462;DHT22;3264;42.862;25.098;2022-12-01T08:36:22;2.10;99.90
6462;DHT22;3264;42.862;25.098;2022-12-01T08:38:53;2.20;99.90
6462;DHT22;3264;42.862;25.098;2022-12-01T10:00:35;1.80;99.90
6462;DHT22;3264;42.862;25.098;2022-12-01T10:03:18;2.00;99.90
6462;DHT22;3264;42.862;25.098;2022-12-01T10:05:53;2.10;99.90
6462;DHT22;3264;42.862;25.098;2022-12-01T10:08:25;2.10;99.90
6462;DHT22;3264;42.862;25.098;2022-12-01T10:10:55;2.20;99.90
6462;DHT22;3264;42.862;25.098;2022-12-01T10:13:27;2.30;99.90
6462;DHT22;3264;42.862;25.098;2022-12-01T10:16:06;2.20;99.90
6462;DHT22;3264;42.862;25.098;2022-12-01T10:18:45;2.20;99.90
6462;DHT22;3264;42.862;25.098;2022-12-01T10:21:24;2.20;99.90
6462;DHT22;3264;42.862;25.098;2022-12-01T10:24:13;2.20;99.90
6462;DHT22;3264;42.862;25.098;2022-12-01T10:26:49;2.20;99.90
6462;DHT22;3264;42.862;25.098;2022-12-01T10:29:30;2.00;99.90
6462;DHT22;3264;42.862;25.098;2022-12-01T10:32:04;1.80;99.90
6462;DHT22;3264;42.862;25.098;2022-12-01T10:34:40;2.00;99.90
6462;DHT22;3264;42.862;25.098;2022-12-01T10:37:16;2.10;99.90
6462;DHT22;3264;42.862;25.098;2022-12-01T10:39:46;2.10;99.90
6462;DHT22;3264;42.862;25.098;2022-12-01T10:42:25;2.20;99.90
6462;DHT22;3264;42.862;25.098;2022-12-01T10:44:55;2.30;99.90
6462;DHT22;3264;42.862;25.098;2022-12-01T10:47:26;2.30;99.90
6462;DHT22;3264;42.862;25.098;2022-12-01T10:49:55;2.30;99.90
6462;DHT22;3264;42.862;25.098;2022-12-01T10:52:35;2.10;99.90
6462;DHT22;3264;42.862;25.098;2022-12-01T10:55:23;2.20;99.90
6462;DHT22;3264;42.862;25.098;2022-12-01T10:57:54;2.00;99.90
6462;DHT22;3264;42.862;25.098;2022-12-01T11:00:24;2.10;99.90
6462;DHT22;3264;42.862;25.098;2022-12-01T11:02:54;2.20;99.90
6462;DHT22;3264;42.862;25.098;2022-12-01T11:05:25;2.20;99.90
6462;DHT22;3264;42.862;25.098;2022-12-01T11:07:54;2.30;99.90
6462;DHT22;3264;42.862;25.098;2022-12-01T11:10:23;2.20;99.90
6462;DHT22;3264;42.862;25.098;2022-12-01T11:12:54;2.20;99.90
6462;DHT22;3264;42.862;25.098;2022-12-01T11:15:25;2.30;99.90
6462;DHT22;3264;42.862;25.098;2022-12-01T11:17:59;2.20;99.90
6462;DHT22;3264;42.862;25.098;2022-12-01T11:20:32;2.10;99.90
6462;DHT22;3264;42.862;25.098;2022-12-01T11:23:25;2.20;99.90
6462;DHT22;3264;42.862;25.098;2022-12-01T11:25:59;2.10;99.90
6462;DHT22;3264;42.862;25.098;2022-12-01T11:28:28;2.10;99.90
6462;DHT22;3264;42.862;25.098;2022-12-01T11:31:00;2.10;99.90
6462;DHT22;3264;42.862;25.098;2022-12-01T11:33:35;2.10;99.90
6462;DHT22;3264;42.862;25.098;2022-12-01T11:36:05;2.00;99.90
6462;DHT22;3264;42.862;25.098;2022-12-01T11:38:34;2.00;99.90
6462;DHT22;3264;42.862;25.098;2022-12-01T11:41:03;2.10;99.90
6462;DHT22;3264;42.862;25.098;2022-12-01T11:43:33;2.20;99.90
6462;DHT22;3264;42.862;25.098;2022-12-01T11:46:31;2.20;99.90
6462;DHT22;3264;42.862;25.098;2022-12-01T11:49:13;2.00;99.90
6462;DHT22;3264;42.862;25.098;2022-12-01T11:51:43;2.10;99.90
6462;DHT22;3264;42.862;25.098;2022-12-01T11:54:15;2.00;99.90
6462;DHT22;3264;42.862;25.098;2022-12-01T11:56:45;2.00;99.90
6462;DHT22;3264;42.862;25.098;2022-12-01T11:59:15;2.00;99.90
6462;DHT22;3264;42.862;25.098;2022-12-01T12:02:12;2.00;99.90
6462;DHT22;3264;42.862;25.098;2022-12-01T12:08:02;1.90;99.90
6462;DHT22;3264;42.862;25.098;2022-12-01T12:10:43;1.70;99.90
6462;DHT22;3264;42.862;25.098;2022-12-01T12:13:35;1.70;99.90
6462;DHT22;3264;42.862;25.098;2022-12-01T12:16:12;1.90;99.90
6462;DHT22;3264;42.862;25.098;2022-12-01T12:19:01;1.80;99.90
6462;DHT22;3264;42.862;25.098;2022-12-01T12:21:41;1.90;99.90
6462;DHT22;3264;42.862;25.098;2022-12-01T12:24:24;1.90;99.90
6462;DHT22;3264;42.862;25.098;2022-12-01T12:27:02;1.90;99.90
6462;DHT22;3264;42.862;25.098;2022-12-01T12:32:41;2.00;99.90
6462;DHT22;3264;42.862;25.098;2022-12-01T12:35:25;1.90;99.90
6462;DHT22;3264;42.862;25.098;2022-12-01T12:38:03;2.00;99.90
6462;DHT22;3264;42.862;25.098;2022-12-01T12:40:40;1.90;99.90
6462;DHT22;3264;42.862;25.098;2022-12-01T12:43:26;1.90;99.90
6462;DHT22;3264;42.862;25.098;2022-12-01T12:46:03;1.90;99.90
6462;DHT22;3264;42.862;25.098;2022-12-01T12:48:53;2.00;99.90
6462;DHT22;3264;42.862;25.098;2022-12-01T12:51:30;1.90;99.90
6462;DHT22;3264;42.862;25.098;2022-12-01T12:54:08;1.80;99.90
6462;DHT22;3264;42.862;25.098;2022-12-01T12:56:44;1.80;99.90
6462;DHT22;3264;42.862;25.098;2022-12-01T12:59:17;1.70;99.90
6462;DHT22;3264;42.862;25.098;2022-12-01T13:01:53;1.80;99.90
6462;DHT22;3264;42.862;25.098;2022-12-01T13:04:26;1.70;99.90
6462;DHT22;3264;42.862;25.098;2022-12-01T13:07:01;1.70;99.90
6462;DHT22;3264;42.862;25.098;2022-12-01T13:09:36;1.60;99.90
6462;DHT22;3264;42.862;25.098;2022-12-01T13:12:07;1.70;99.90
6462;DHT22;3264;42.862;25.098;2022-12-01T13:14:43;1.70;99.90
6462;DHT22;3264;42.862;25.098;2022-12-01T13:17:18;1.80;99.90
6462;DHT22;3264;42.862;25.098;2022-12-01T13:19:48;1.70;99.90
6462;DHT22;3264;42.862;25.098;2022-12-01T13:22:21;1.70;99.90
6462;DHT22;3264;42.862;25.098;2022-12-01T13:24:52;1.70;99.90
6462;DHT22;3264;42.862;25.098;2022-12-01T13:27:21;1.70;99.90
6462;DHT22;3264;42.862;25.098;2022-12-01T13:29:51;1.60;99.90
6462;DHT22;3264;42.862;25.098;2022-12-01T13:32:31;1.70;99.90
6462;DHT22;3264;42.862;25.098;2022-12-01T13:35:02;1.60;99.90
6462;DHT22;3264;42.862;25.098;2022-12-01T13:37:35;1.70;99.90
6462;DHT22;3264;42.862;25.098;2022-12-01T13:40:15;1.70;99.90
6462;DHT22;3264;42.862;25.098;2022-12-01T13:42:55;1.70;99.90
6462;DHT22;3264;42.862;25.098;2022-12-01T13:45:24;1.60;99.90
6462;DHT22;3264;42.862;25.098;2022-12-01T13:47:55;1.60;99.90
6462;DHT22;3264;42.862;25.098;2022-12-01T13:53:37;1.50;99.90
6462;DHT22;3264;42.862;25.098;2022-12-01T13:56:37;1.60;99.90
6462;DHT22;3264;42.862;25.098;2022-12-01T13:59:39;1.60;99.90
6462;DHT22;3264;42.862;25.098;2022-12-01T14:02:18;1.40;99.90
6462;DHT22;3264;42.862;25.098;2022-12-01T14:04:46;1.60;99.90
6462;DHT22;3264;42.862;25.098;2022-12-01T14:07:27;1.50;99.90
6462;DHT22;3264;42.862;25.098;2022-12-01T14:10:24;1.50;99.90
6462;DHT22;3264;42.862;25.098;2022-12-01T14:12:58;1.40;99.90
6462;DHT22;3264;42.862;25.098;2022-12-01T14:15:36;1.50;99.90
6462;DHT22;3264;42.862;25.098;2022-12-01T14:18:23;1.50;99.90
6462;DHT22;3264;42.862;25.098;2022-12-01T14:20:53;1.40;99.90
6462;DHT22;3264;42.862;25.098;2022-12-01T14:23:26;1.40;99.90
6462;DHT22;3264;42.862;25.098;2022-12-01T14:26:04;1.50;99.90
6462;DHT22;3264;42.862;25.098;2022-12-01T14:32:19;1.40;99.90
6462;DHT22;3264;42.862;25.098;2022-12-01T14:35:11;1.40;99.90
6462;DHT22;3264;42.862;25.098;2022-12-01T14:37:47;1.40;99.90
6462;DHT22;3264;42.862;25.098;2022-12-01T14:40:23;1.40;99.90
6462;DHT22;3264;42.862;25.098;2022-12-01T14:42:56;1.40;99.90
6462;DHT22;3264;42.862;25.098;2022-12-01T14:45:52;1.40;99.90
6462;DHT22;3264;42.862;25.098;2022-12-01T14:48:27;1.40;99.90
6462;DHT22;3264;42.862;25.098;2022-12-01T14:51:14;1.20;99.90
6462;DHT22;3264;42.862;25.098;2022-12-01T14:53:45;1.30;99.90
6462;DHT22;3264;42.862;25.098;2022-12-01T14:56:17;1.30;99.90
6462;DHT22;3264;42.862;25.098;2022-12-01T14:58:52;1.30;99.90
6462;DHT22;3264;42.862;25.098;2022-12-01T15:01:22;1.30;99.90
6462;DHT22;3264;42.862;25.098;2022-12-01T15:03:53;1.30;99.90
6462;DHT22;3264;42.862;25.098;2022-12-01T15:06:24;1.30;99.90
6462;DHT22;3264;42.862;25.098;2022-12-01T15:09:10;1.30;99.90
6462;DHT22;3264;42.862;25.098;2022-12-01T15:11:51;1.30;99.90
6462;DHT22;3264;42.862;25.098;2022-12-01T15:14:23;1.10;99.90
6462;DHT22;3264;42.862;25.098;2022-12-01T15:16:52;1.10;99.90
6462;DHT22;3264;42.862;25.098;2022-12-01T15:22:20;1.20;99.90
6462;DHT22;3264;42.862;25.098;2022-12-01T15:24:49;1.20;99.90
6462;DHT22;3264;42.862;25.098;2022-12-01T15:27:25;1.20;99.90
6462;DHT22;3264;42.862;25.098;2022-12-01T15:29:55;1.20;99.90
6462;DHT22;3264;42.862;25.098;2022-12-01T15:32:24;1.20;99.90
6462;DHT22;3264;42.862;25.098;2022-12-01T15:34:53;1.10;99.90
6462;DHT22;3264;42.862;25.098;2022-12-01T15:37:25;1.20;99.90
6462;DHT22;3264;42.862;25.098;2022-12-01T15:39:56;1.20;99.90
6462;DHT22;3264;42.862;25.098;2022-12-01T15:42:29;1.20;99.90
6462;DHT22;3264;42.862;25.098;2022-12-01T15:44:59;1.20;99.90
6462;DHT22;3264;42.862;25.098;2022-12-01T15:47:32;1.00;99.90
6462;DHT22;3264;42.862;25.098;2022-12-01T15:50:04;1.10;99.90
6462;DHT22;3264;42.862;25.098;2022-12-01T15:52:42;1.00;99.90
6462;DHT22;3264;42.862;25.098;2022-12-01T15:55:23;1.10;99.90
6462;DHT22;3264;42.862;25.098;2022-12-01T15:57:51;1.10;99.90
6462;DHT22;3264;42.862;25.098;2022-12-01T16:00:21;1.10;99.90
6462;DHT22;3264;42.862;25.098;2022-12-01T16:02:51;1.10;99.90
6462;DHT22;3264;42.862;25.098;2022-12-01T16:05:24;1.20;99.90
6462;DHT22;3264;42.862;25.098;2022-12-01T16:07:54;1.10;99.90
6462;DHT22;3264;42.862;25.098;2022-12-01T16:10:28;1.10;99.90
6462;DHT22;3264;42.862;25.098;2022-12-01T16:18:53;1.20;99.90
6462;DHT22;3264;42.862;25.098;2022-12-01T16:21:23;1.10;99.90
6462;DHT22;3264;42.862;25.098;2022-12-01T16:23:59;1.10;99.90
6462;DHT22;3264;42.862;25.098;2022-12-01T16:26:29;1.10;99.90
6462;DHT22;3264;42.862;25.098;2022-12-01T16:28:59;1.20;99.90
6462;DHT22;3264;42.862;25.098;2022-12-01T16:31:28;1.10;99.90
6462;DHT22;3264;42.862;25.098;2022-12-01T16:34:02;1.20;99.90
6462;DHT22;3264;42.862;25.098;2022-12-01T16:36:30;1.10;99.90
6462;DHT22;3264;42.862;25.098;2022-12-01T16:39:04;1.10;99.90
6462;DHT22;3264;42.862;25.098;2022-12-01T16:41:32;1.10;99.90
6462;DHT22;3264;42.862;25.098;2022-12-01T16:44:01;1.10;99.90
6462;DHT22;3264;42.862;25.098;2022-12-01T16:46:30;1.10;99.90
6462;DHT22;3264;42.862;25.098;2022-12-01T16:48:59;1.20;99.90
6462;DHT22;3264;42.862;25.098;2022-12-01T16:51:27;1.10;99.90
6462;DHT22;3264;42.862;25.098;2022-12-01T16:53:59;1.10;99.90
6462;DHT22;3264;42.862;25.098;2022-12-01T16:56:30;1.10;99.90
6462;DHT22;3264;42.862;25.098;2022-12-01T16:58:59;1.10;99.90
6462;DHT22;3264;42.862;25.098;2022-12-01T17:01:28;1.20;99.90
6462;DHT22;3264;42.862;25.098;2022-12-01T17:03:57;1.10;99.90
6462;DHT22;3264;42.862;25.098;2022-12-01T17:06:26;1.10;99.90
6462;DHT22;3264;42.862;25.098;2022-12-01T17:08:55;1.10;99.90
6462;DHT22;3264;42.862;25.098;2022-12-01T17:11:25;1.10;99.90
6462;DHT22;3264;42.862;25.098;2022-12-01T17:13:53;1.10;99.90
6462;DHT22;3264;42.862;25.098;2022-12-01T17:16:21;1.20;99.90
6462;DHT22;3264;42.862;25.098;2022-12-01T17:18:50;1.20;99.90
6462;DHT22;3264;42.862;25.098;2022-12-01T17:21:17;1.10;99.90
6462;DHT22;3264;42.862;25.098;2022-12-01T17:23:45;1.10;99.90
6462;DHT22;3264;42.862;25.098;2022-12-01T17:26:16;1.10;99.90
6462;DHT22;3264;42.862;25.098;2022-12-01T17:28:47;1.10;99.90
6462;DHT22;3264;42.862;25.098;2022-12-01T17:31:17;1.20;99.90
6462;DHT22;3264;42.862;25.098;2022-12-01T17:33:46;1.10;99.90
6462;DHT22;3264;42.862;25.098;2022-12-01T17:36:16;1.10;99.90
6462;DHT22;3264;42.862;25.098;2022-12-01T17:38:46;1.10;99.90
6462;DHT22;3264;42.862;25.098;2022-12-01T17:41:17;1.10;99.90
6462;DHT22;3264;42.862;25.098;2022-12-01T17:43:48;1.10;99.90
6462;DHT22;3264;42.862;25.098;2022-12-01T17:46:16;1.10;99.90
6462;DHT22;3264;42.862;25.098;2022-12-01T17:48:45;1.10;99.90
6462;DHT22;3264;42.862;25.098;2022-12-01T17:51:14;1.20;99.90
6462;DHT22;3264;42.862;25.098;2022-12-01T17:53:42;1.10;99.90
6462;DHT22;3264;42.862;25.098;2022-12-01T17:56:13;1.20;99.90
6462;DHT22;3264;42.862;25.098;2022-12-01T17:58:42;1.20;99.90
6462;DHT22;3264;42.862;25.098;2022-12-01T18:01:14;1.20;99.90
6462;DHT22;3264;42.862;25.098;2022-12-01T18:03:44;1.20;99.90
6462;DHT22;3264;42.862;25.098;2022-12-01T18:06:13;1.10;99.90
6462;DHT22;3264;42.862;25.098;2022-12-01T18:08:42;1.20;99.90
6462;DHT22;3264;42.862;25.098;2022-12-01T18:11:12;1.10;99.90
6462;DHT22;3264;42.862;25.098;2022-12-01T18:13:44;1.10;99.90
6462;DHT22;3264;42.862;25.098;2022-12-01T18:16:15;1.10;99.90
6462;DHT22;3264;42.862;25.098;2022-12-01T18:18:45;1.10;99.90
6462;DHT22;3264;42.862;25.098;2022-12-01T18:21:18;1.10;99.90
6462;DHT22;3264;42.862;25.098;2022-12-01T18:23:48;1.10;99.90